createdAt,value
2023-04-18T00:01:45.806Z,4.30
2023-04-18T00:04:34.265Z,3.40
2023-04-18T00:07:21.772Z,3.60
2023-04-18T00:10:09.202Z,3.20
2023-04-18T00:12:56.044Z,3.90
2023-04-18T00:15:44.879Z,5.30
2023-04-18T00:18:32.121Z,3.50
2023-04-18T00:21:22.284Z,3.50
2023-04-18T00:24:09.278Z,3.40
2023-04-18T00:26:57.849Z,4.20
2023-04-18T00:29:45.514Z,3.10
2023-04-18T00:32:33.248Z,3.70
2023-04-18T00:35:20.295Z,4.30
2023-04-18T00:38:07.534Z,6.30
2023-04-18T00:40:54.311Z,3.00
2023-04-18T00:43:41.532Z,4.10
2023-04-18T00:46:28.512Z,3.90
2023-04-18T00:49:16.832Z,3.30
2023-04-18T00:52:04.671Z,3.70
2023-04-18T00:54:52.089Z,3.10
2023-04-18T00:57:39.412Z,3.20
2023-04-18T01:04:05.518Z,3.20
2023-04-18T01:06:54.377Z,4.60
2023-04-18T01:09:42.493Z,4.70
2023-04-18T01:12:29.456Z,4.00
2023-04-18T01:15:17.056Z,4.10
2023-04-18T01:18:05.102Z,4.60
2023-04-18T01:20:53.343Z,4.10
2023-04-18T01:23:40.888Z,4.10
2023-04-18T01:26:29.142Z,4.00
2023-04-18T01:29:16.899Z,4.90
2023-04-18T01:32:04.747Z,4.10
2023-04-18T01:34:52.021Z,4.80
2023-04-18T01:37:39.989Z,3.90
2023-04-18T01:40:29.952Z,4.20
2023-04-18T01:43:17.139Z,4.70
2023-04-18T01:46:04.280Z,7.20
2023-04-18T01:48:51.441Z,5.20
2023-04-18T01:51:41.060Z,4.00
2023-04-18T01:54:30.115Z,4.70
2023-04-18T01:57:17.290Z,3.90
2023-04-18T02:00:17.183Z,3.90
2023-04-18T02:03:04.597Z,4.10
2023-04-18T02:05:52.426Z,4.00
2023-04-18T02:08:39.710Z,2.80
2023-04-18T02:11:27.063Z,3.80
2023-04-18T02:14:14.853Z,2.60
2023-04-18T02:17:02.725Z,3.10
2023-04-18T02:19:52.069Z,3.00
2023-04-18T02:22:39.777Z,3.50
2023-04-18T02:25:28.367Z,5.00
2023-04-18T02:28:16.002Z,5.20
2023-04-18T02:31:03.498Z,3.90
2023-04-18T02:33:51.789Z,2.90
2023-04-18T02:36:43.093Z,3.00
2023-04-18T02:39:31.880Z,2.90
2023-04-18T02:42:22.757Z,2.50
2023-04-18T02:45:10.247Z,4.90
2023-04-18T02:47:58.500Z,3.40
2023-04-18T02:50:45.884Z,3.00
2023-04-18T02:53:56.254Z,4.20
2023-04-18T02:56:44.874Z,3.40
2023-04-18T02:59:49.371Z,4.00
2023-04-18T03:02:57.245Z,7.70
2023-04-18T03:06:24.467Z,5.60
2023-04-18T03:09:13.428Z,5.20
2023-04-18T03:12:06.588Z,4.40
2023-04-18T03:14:57.699Z,6.50
2023-04-18T03:18:08.342Z,6.10
2023-04-18T03:21:18.352Z,7.50
2023-04-18T03:24:34.336Z,9.00
2023-04-18T03:27:52.326Z,10.70
2023-04-18T03:31:02.737Z,6.30
2023-04-18T03:34:12.909Z,8.50
2023-04-18T03:37:07.794Z,8.00
2023-04-18T03:40:06.000Z,9.10
2023-04-18T03:43:14.752Z,8.70
2023-04-18T03:46:23.003Z,9.30
2023-04-18T03:49:33.047Z,9.80
2023-04-18T03:53:21.334Z,8.30
2023-04-18T03:56:34.230Z,11.10
2023-04-18T04:00:08.279Z,10.30
2023-04-18T04:03:33.488Z,9.60
2023-04-18T04:07:06.428Z,11.00
2023-04-18T04:10:14.566Z,9.90
2023-04-18T04:13:59.689Z,9.50
2023-04-18T04:17:47.545Z,9.90
2023-04-18T04:21:47.640Z,11.60
2023-04-18T04:29:32.621Z,9.50
2023-04-18T04:33:26.446Z,8.30
2023-04-18T04:37:20.669Z,9.70
2023-04-18T04:41:32.462Z,10.30
2023-04-18T04:45:25.594Z,10.60
2023-04-18T04:49:20.471Z,11.60
2023-04-18T04:53:14.704Z,11.20
2023-04-18T04:57:09.461Z,11.70
2023-04-18T05:01:03.685Z,12.70
2023-04-18T05:05:07.496Z,12.20
2023-04-18T05:09:00.612Z,12.10
2023-04-18T05:12:52.476Z,13.10
2023-04-18T05:16:46.689Z,10.70
2023-04-18T05:20:41.530Z,12.20
2023-04-18T05:24:34.650Z,12.40
2023-04-18T05:32:11.598Z,11.40
2023-04-18T05:36:06.539Z,12.50
2023-04-18T05:40:01.659Z,11.20
2023-04-18T05:44:04.835Z,12.70
2023-04-18T05:47:37.615Z,10.70
2023-04-18T05:51:44.481Z,11.50
2023-04-18T05:55:54.689Z,11.90
2023-04-18T05:59:21.465Z,10.80
2023-04-18T06:03:04.921Z,9.20
2023-04-18T06:06:25.897Z,10.70
2023-04-18T06:09:42.965Z,11.90
2023-04-18T06:12:36.114Z,12.30
2023-04-18T06:15:43.987Z,12.30
2023-04-18T06:18:43.996Z,10.80
2023-04-18T06:21:55.872Z,10.70
2023-04-18T06:25:30.699Z,10.30
2023-04-18T06:29:03.725Z,12.70
2023-04-18T06:32:35.605Z,11.80
2023-04-18T06:36:17.611Z,11.50
2023-04-18T06:39:56.556Z,9.90
2023-04-18T06:42:54.079Z,11.80
2023-04-18T06:46:20.564Z,12.20
2023-04-18T06:50:17.568Z,11.20
2023-04-18T06:54:06.449Z,10.40
2023-04-18T06:57:25.817Z,10.20
2023-04-18T07:00:22.087Z,11.90
2023-04-18T07:03:38.044Z,11.80
2023-04-18T07:06:55.190Z,11.90
2023-04-18T07:10:22.436Z,10.30
2023-04-18T07:13:12.648Z,10.60
2023-04-18T07:16:22.661Z,13.10
2023-04-18T07:19:38.235Z,10.50
2023-04-18T07:22:26.583Z,10.10
2023-04-18T07:25:15.349Z,11.60
2023-04-18T07:28:03.858Z,10.10
2023-04-18T07:30:51.870Z,9.90
2023-04-18T07:33:59.667Z,11.30
2023-04-18T07:36:48.427Z,10.20
2023-04-18T07:39:55.807Z,10.10
2023-04-18T07:42:44.419Z,10.00
2023-04-18T07:45:37.991Z,12.70
2023-04-18T07:48:30.667Z,9.10
2023-04-18T07:51:19.045Z,9.30
2023-04-18T07:54:07.409Z,8.70
2023-04-18T07:56:54.875Z,7.80
2023-04-18T08:00:09.489Z,10.00
2023-04-18T08:03:08.864Z,10.30
2023-04-18T08:06:56.880Z,9.20
2023-04-18T08:09:44.262Z,8.90
2023-04-18T08:12:49.782Z,11.10
2023-04-18T08:15:44.662Z,11.50
2023-04-18T08:19:04.548Z,9.50
2023-04-18T08:22:12.907Z,8.70
2023-04-18T08:25:23.754Z,10.20
2023-04-18T08:28:37.927Z,7.60
2023-04-18T08:31:26.535Z,8.10
2023-04-18T08:34:14.704Z,9.70
2023-04-18T08:40:07.599Z,7.20
2023-04-18T08:43:24.809Z,7.00
2023-04-18T08:46:36.441Z,7.50
2023-04-18T08:50:13.116Z,8.10
2023-04-18T08:53:06.093Z,7.40
2023-04-18T08:56:07.410Z,11.80
2023-04-18T08:59:27.196Z,7.10
2023-04-18T09:02:17.559Z,9.50
2023-04-18T09:05:25.602Z,7.30
2023-04-18T09:08:24.220Z,6.80
2023-04-18T09:11:24.662Z,7.10
2023-04-18T09:14:29.699Z,6.30
2023-04-18T09:17:39.796Z,7.00
2023-04-18T09:20:48.948Z,7.90
2023-04-18T09:23:39.011Z,8.90
2023-04-18T09:26:42.969Z,6.90
2023-04-18T09:29:56.557Z,7.20
2023-04-18T09:33:05.136Z,5.90
2023-04-18T09:37:01.765Z,5.80
2023-04-18T09:40:40.865Z,6.30
2023-04-18T09:43:56.765Z,6.60
2023-04-18T09:47:26.058Z,5.40
2023-04-18T09:50:13.948Z,5.50
2023-04-18T09:53:29.002Z,6.50
2023-04-18T09:56:40.800Z,5.90
2023-04-18T10:00:33.419Z,6.30
2023-04-18T10:04:32.695Z,4.70
2023-04-18T10:08:15.432Z,5.10
2023-04-18T10:12:16.518Z,6.00
2023-04-18T10:16:13.505Z,4.90
2023-04-18T10:19:57.552Z,8.80
2023-04-18T10:24:12.607Z,6.10
2023-04-18T10:28:22.577Z,4.80
2023-04-18T10:32:27.542Z,5.00
2023-04-18T10:36:38.550Z,4.70
2023-04-18T10:40:16.547Z,3.40
2023-04-18T10:44:14.837Z,7.50
2023-04-18T10:47:43.476Z,5.30
2023-04-18T10:51:32.591Z,4.60
2023-04-18T10:55:22.439Z,5.70
2023-04-18T10:59:28.671Z,5.00
2023-04-18T11:03:08.536Z,4.20
2023-04-18T11:07:03.583Z,4.10
2023-04-18T11:11:00.416Z,6.10
2023-04-18T11:14:55.613Z,18.80
2023-04-18T11:18:47.427Z,3.40
2023-04-18T11:22:31.801Z,4.50
2023-04-18T11:26:39.452Z,4.90
2023-04-18T11:30:31.496Z,4.70
2023-04-18T11:34:25.483Z,7.00
2023-04-18T11:38:24.540Z,4.40
2023-04-18T11:42:18.551Z,3.80
2023-04-18T11:46:11.539Z,4.50
2023-04-18T11:50:04.435Z,5.50
2023-04-18T11:54:01.533Z,2.80
2023-04-18T11:57:58.464Z,3.70
2023-04-18T12:01:58.758Z,3.70
2023-04-18T12:05:37.554Z,3.70
2023-04-18T12:09:32.595Z,2.70
2023-04-18T12:13:36.426Z,3.10
2023-04-18T12:17:41.540Z,7.10
2023-04-18T12:21:35.427Z,6.30
2023-04-18T12:25:51.496Z,2.60
2023-04-18T12:29:45.447Z,3.70
2023-04-18T12:33:39.577Z,3.20
2023-04-18T12:37:34.455Z,3.10
2023-04-18T12:42:52.270Z,3.90
2023-04-18T12:46:32.100Z,4.20
2023-04-18T12:50:27.248Z,4.10
2023-04-18T12:54:20.111Z,6.40
2023-04-18T12:57:52.783Z,3.90
2023-04-18T13:01:51.103Z,4.90
2023-04-18T13:05:37.408Z,3.90
2023-04-18T13:09:34.083Z,4.60
2023-04-18T13:12:50.706Z,4.60
2023-04-18T13:16:54.139Z,5.90
2023-04-18T13:20:50.238Z,8.90
2023-04-18T13:24:59.076Z,4.10
2023-04-18T13:28:54.218Z,6.10
2023-04-18T13:32:33.176Z,3.70
2023-04-18T13:36:35.208Z,3.60
2023-04-18T13:40:33.103Z,5.80
2023-04-18T13:44:28.271Z,3.50
2023-04-18T13:48:22.060Z,4.50
2023-04-18T13:52:22.338Z,4.30
2023-04-18T13:56:04.108Z,5.10
2023-04-18T13:59:59.248Z,4.20
2023-04-18T14:03:54.225Z,4.60
2023-04-18T14:07:34.246Z,3.70
2023-04-18T14:11:13.062Z,5.70
2023-04-18T14:15:12.010Z,4.10
2023-04-18T14:19:02.134Z,3.90
2023-04-18T14:23:02.276Z,4.10
2023-04-18T14:26:24.966Z,7.30
2023-04-18T14:30:26.917Z,3.70
2023-04-18T14:34:14.055Z,5.60
2023-04-18T14:38:17.407Z,6.90
2023-04-18T14:41:49.426Z,3.40
2023-04-18T14:45:17.312Z,4.50
2023-04-18T14:49:13.423Z,3.90
2023-04-18T14:52:57.547Z,4.30
2023-04-18T14:57:06.182Z,4.80
2023-04-18T15:00:48.384Z,4.80
2023-04-18T15:03:47.003Z,5.30
2023-04-18T15:08:04.189Z,5.20
2023-04-18T15:11:53.061Z,5.40
2023-04-18T15:15:41.189Z,4.20
2023-04-18T15:19:14.986Z,5.80
2023-04-18T15:23:00.251Z,5.20
2023-04-18T15:26:31.697Z,4.80
2023-04-18T15:30:23.276Z,4.70
2023-04-18T15:34:04.278Z,4.30
2023-04-18T15:38:11.295Z,4.40
2023-04-18T15:42:01.051Z,4.60
2023-04-18T15:45:58.862Z,4.90
2023-04-18T15:49:33.128Z,14.10
2023-04-18T15:52:55.683Z,7.30
2023-04-18T15:57:04.804Z,7.00
2023-04-18T16:00:37.186Z,6.60
2023-04-18T16:03:48.813Z,15.80
2023-04-18T16:06:53.253Z,6.80
2023-04-18T16:10:16.101Z,6.70
2023-04-18T16:13:40.186Z,6.40
2023-04-18T16:17:22.448Z,7.20
2023-04-18T16:20:30.717Z,12.40
2023-04-18T16:23:21.478Z,9.20
2023-04-18T16:26:50.756Z,5.70
2023-04-18T16:30:17.935Z,7.10
2023-04-18T16:33:49.850Z,8.30
2023-04-18T16:37:01.200Z,8.20
2023-04-18T16:40:20.701Z,7.20
2023-04-18T16:43:27.244Z,5.40
2023-04-18T16:46:40.790Z,8.00
2023-04-18T16:49:34.096Z,8.10
2023-04-18T16:52:31.685Z,13.10
2023-04-18T16:55:20.246Z,6.80
2023-04-18T16:58:27.830Z,11.00
2023-04-18T17:01:16.952Z,10.10
2023-04-18T17:04:44.070Z,8.90
2023-04-18T17:07:36.785Z,8.00
2023-04-18T17:10:51.752Z,7.00
2023-04-18T17:14:01.851Z,7.70
2023-04-18T17:16:57.687Z,7.80
2023-04-18T17:20:34.649Z,8.80
2023-04-18T17:24:04.265Z,9.90
2023-04-18T17:27:35.208Z,13.00
2023-04-18T17:31:03.032Z,9.40
2023-04-18T17:34:30.363Z,11.30
2023-04-18T17:37:59.773Z,12.80
2023-04-18T17:41:04.102Z,14.70
2023-04-18T17:44:31.560Z,11.60
2023-04-18T17:47:58.879Z,13.20
2023-04-18T17:50:59.431Z,10.50
2023-04-18T17:54:24.237Z,11.30
2023-04-18T17:57:37.768Z,10.60
2023-04-18T18:01:04.826Z,11.70
2023-04-18T18:04:10.112Z,9.60
2023-04-18T18:07:04.872Z,10.00
2023-04-18T18:10:30.184Z,16.20
2023-04-18T18:13:21.202Z,8.50
2023-04-18T18:16:47.018Z,11.70
2023-04-18T18:19:41.413Z,7.90
2023-04-18T18:22:52.524Z,9.80
2023-04-18T18:26:07.141Z,9.20
2023-04-18T18:28:57.122Z,8.40
2023-04-18T18:32:06.648Z,8.60
2023-04-18T18:36:01.411Z,11.40
2023-04-18T18:39:26.885Z,15.50
2023-04-18T18:42:57.054Z,10.40
2023-04-18T18:45:53.784Z,9.70
2023-04-18T18:48:51.512Z,9.20
2023-04-18T18:52:40.140Z,14.60
2023-04-18T18:55:51.782Z,12.80
2023-04-18T18:59:09.123Z,14.20
2023-04-18T19:03:20.805Z,13.20
2023-04-18T19:07:04.038Z,16.30
2023-04-18T19:10:48.435Z,31.20
2023-04-18T19:14:23.965Z,32.80
2023-04-18T19:17:24.938Z,26.60
2023-04-18T19:20:12.126Z,25.20
2023-04-18T19:22:59.780Z,21.10
2023-04-18T19:25:52.438Z,27.90
2023-04-18T19:28:41.510Z,22.90
2023-04-18T19:31:28.625Z,18.10
2023-04-18T19:34:19.069Z,21.60
2023-04-18T19:37:06.486Z,19.60
2023-04-18T19:39:53.515Z,18.90
2023-04-18T19:42:40.257Z,15.80
2023-04-18T19:45:27.661Z,20.90
2023-04-18T19:48:15.143Z,19.50
2023-04-18T19:51:05.211Z,19.30
2023-04-18T19:53:53.436Z,18.40
2023-04-18T19:56:41.287Z,18.30
2023-04-18T19:59:28.457Z,17.80
2023-04-18T20:02:15.830Z,17.70
2023-04-18T20:05:04.730Z,16.50
2023-04-18T20:07:58.882Z,23.90
2023-04-18T20:10:48.636Z,27.30
2023-04-18T20:13:37.493Z,39.50
2023-04-18T20:16:27.100Z,55.50
2023-04-18T20:19:16.129Z,33.60
2023-04-18T20:22:10.525Z,51.30
2023-04-18T20:25:01.644Z,46.30
2023-04-18T20:27:55.345Z,41.00
2023-04-18T20:31:03.395Z,34.40
2023-04-18T20:33:54.576Z,30.10
2023-04-18T20:36:47.192Z,23.30
2023-04-18T20:39:35.745Z,24.50
2023-04-18T20:42:29.270Z,44.60
2023-04-18T20:45:18.125Z,45.20
2023-04-18T20:48:06.589Z,37.30
2023-04-18T20:50:54.155Z,38.80
2023-04-18T20:53:48.830Z,27.70
2023-04-18T20:56:38.371Z,20.00
2023-04-18T20:59:26.641Z,25.40
2023-04-18T21:02:26.560Z,21.00
2023-04-18T21:05:34.573Z,21.30
2023-04-18T21:08:21.986Z,22.70
2023-04-18T21:11:09.810Z,22.60
2023-04-18T21:13:56.846Z,27.70
2023-04-18T21:17:26.246Z,36.10
2023-04-18T21:20:48.229Z,55.20
2023-04-18T21:23:59.824Z,51.60
2023-04-18T21:27:14.116Z,57.90
2023-04-18T21:31:02.099Z,89.30
2023-04-18T21:34:17.725Z,64.50
2023-04-18T21:37:06.726Z,53.00
2023-04-18T21:40:05.646Z,53.90
2023-04-18T21:43:33.582Z,42.20
2023-04-18T21:47:03.002Z,43.70
2023-04-18T21:50:35.424Z,45.20
2023-04-18T21:53:45.697Z,39.50
2023-04-18T21:57:07.845Z,38.80
2023-04-18T22:00:17.746Z,32.80
2023-04-18T22:03:17.314Z,36.80
2023-04-18T22:06:26.527Z,31.80
2023-04-18T22:09:19.125Z,34.00
2023-04-18T22:12:20.016Z,29.90
2023-04-18T22:18:09.664Z,33.10
2023-04-18T22:21:06.874Z,25.80
2023-04-18T22:23:55.133Z,29.80
2023-04-18T22:26:43.023Z,29.20
2023-04-18T22:29:31.864Z,30.10
2023-04-18T22:32:19.453Z,30.10
2023-04-18T22:35:07.913Z,28.40
2023-04-18T22:37:57.151Z,28.90
2023-04-18T22:40:52.278Z,27.70
2023-04-18T22:43:48.288Z,29.10
2023-04-18T22:46:39.450Z,26.40
2023-04-18T22:49:46.347Z,26.80
2023-04-18T22:52:38.653Z,23.80
2023-04-18T22:55:46.823Z,26.20
2023-04-18T22:58:36.804Z,27.90
2023-04-18T23:01:26.465Z,23.10
2023-04-18T23:07:15.939Z,24.70
2023-04-18T23:10:07.865Z,25.30
2023-04-18T23:13:16.092Z,30.90
2023-04-18T23:16:10.909Z,25.40
2023-04-18T23:19:13.508Z,29.30
2023-04-18T23:22:01.815Z,25.40
2023-04-18T23:24:51.148Z,22.80
2023-04-18T23:27:59.009Z,25.10
2023-04-18T23:31:16.529Z,27.50
2023-04-18T23:34:06.705Z,27.30
2023-04-18T23:37:36.647Z,26.10
2023-04-18T23:40:34.431Z,28.50
2023-04-18T23:43:42.029Z,23.70
2023-04-18T23:46:50.420Z,23.10
2023-04-18T23:49:55.162Z,23.60
2023-04-18T23:53:03.356Z,23.20
2023-04-18T23:56:12.955Z,22.00
2023-04-18T23:59:20.997Z,21.50
